Time;durP1;ratioP1;P1;durP2;ratioP2;P2;SDS_P1;SDS_P2;PMS_P1;PMS_P2;Temp;Humidity;BMP_temperature;BMP_pressure;BME280_temperature;BME280_humidity;BME280_pressure;Samples;Min_cycle;Max_cycle;Signal;HPM_P1;HPM_P2
2023/02/06 12:16:49;;;;;;;;;;;;;;;;;;5053614;27;2023306;-80
2023/02/06 12:19:14;;;;;;;;;;;;;;;;;;5090910;28;19916;-80
2023/02/06 12:21:39;;;;;;;;;;;;;;;;;;5100845;28;19915;-80
2023/02/06 12:24:04;;;;;;;;;;;;;;;;;;5106090;28;19916;-80
2023/02/06 12:26:29;;;;;;;;;;;;;;;;;;5087171;28;20392;-82
2023/02/06 12:28:56;;;;;;;;;;;;;;;;;;5076800;28;20343;-79
2023/02/06 12:31:21;;;;;;;;;;;;;;;;;;5100779;28;19915;-81
2023/02/06 12:33:47;;;;;;;;;;;;;;;;;;5077588;28;20381;-83
2023/02/06 12:36:14;;;;;;;;;;;;;;;;;;5102360;28;19916;-81
2023/02/06 12:38:39;;;;;;;;;;;;;;;;;;5080983;28;19912;-80
2023/02/06 12:41:05;;;;;;;;;;;;;;;;;;5104494;28;19919;-80
2023/02/06 12:43:30;;;;;;;;;;;;;;;;;;5107047;28;19916;-79
2023/02/06 12:45:55;;;;;;;;;;;;;;;;;;5097622;28;19920;-82
2023/02/06 12:48:20;;;;;;;;;;;;;;;;;;5075049;28;19938;-81
2023/02/06 12:50:45;;;;;;;;;;;;;;;;;;5083638;28;19916;-81
2023/02/06 12:53:10;;;;;;;;;;;;;;;;;;5086095;28;19916;-81
2023/02/06 12:55:35;;;;;;;;;;;;;;;;;;5082308;28;19920;-80
2023/02/06 12:58:01;;;;;;;;;;;;;;;;;;5097415;28;19916;-82
2023/02/06 13:00:26;;;;;;;;;;;;;;;;;;5077334;28;20378;-81
2023/02/06 13:02:51;;;;;;;;;;;;;;;;;;5099549;28;19913;-80
2023/02/06 13:05:16;;;;;;;;;;;;;;;;;;5083351;28;20349;-81
2023/02/06 13:07:42;;;;;;;;;;;;;;;;;;5079534;28;19912;-80
2023/02/06 13:10:07;;;;;;;;;;;;;;;;;;5084147;28;20417;-81
2023/02/06 13:12:32;;;;;;;;;;;;;;;;;;5106610;28;20247;-81
2023/02/06 13:14:57;;;;;;;;;;;;;;;;;;5076451;28;19963;-82
2023/02/06 13:17:22;;;;;;;;;;;;;;;;;;5082253;28;19916;-81
2023/02/06 13:19:48;;;;;;;;;;;;;;;;;;5107004;28;19923;-81
2023/02/06 13:22:15;;;;;;;;;;;;;;;;;;5107707;28;19958;-80
2023/02/06 13:24:40;;;;;;;;;;;;;;;;;;5089639;28;19908;-81
2023/02/06 13:27:05;;;;;;;;;;;;;;;;;;5078522;28;19977;-80
2023/02/06 13:29:34;;;;;;;;;;;;;;;;;;5057458;28;19957;-81
2023/02/06 13:31:59;;;;;;;;;;;;;;;;;;5075086;28;19916;-80
2023/02/06 13:34:24;;;;;;;;;;;;;;;;;;5057176;28;19908;-82
2023/02/06 13:36:49;;;;;;;;;;;;;;;;;;5065189;28;19920;-82
2023/02/06 13:39:14;;;;;;;;;;;;;;;;;;5074608;28;19995;-83
2023/02/06 13:41:41;;;;;;;;;;;;;;;;;;5075194;28;19913;-83
2023/02/06 13:44:06;;;;;;;;;;;;;;;;;;5071252;28;19943;-84
2023/02/06 13:46:31;;;;;;;;;;;;;;;;;;5066483;28;20361;-84
2023/02/06 13:48:56;;;;;;;;;;;;;;;;;;5084523;28;19962;-83
2023/02/06 13:51:21;;;;;;;;;;;;;;;;;;5056634;28;19908;-83
2023/02/06 13:53:47;;;;;;;;;;;;;;;;;;5076973;28;20019;-86
2023/02/06 13:56:12;;;;;;;;;;;;;;;;;;5075752;28;19959;-83
2023/02/06 13:58:38;;;;;;;;;;;;;;;;;;5072589;28;19989;-82
2023/02/06 14:01:03;;;;;;;;;;;;;;;;;;5068955;28;20359;-87
2023/02/06 14:03:28;;;;;;;;;;;;;;;;;;5084106;28;19912;-82
2023/02/06 14:05:53;;;;;;;;;;;;;;;;;;5070236;28;20011;-82
2023/02/06 14:08:18;;;;;;;;;;;;;;;;;;5075379;28;19912;-84
2023/02/06 14:13:27;;;;;;;;;;;;;;;;;;5092186;28;19930;-83
2023/02/06 14:15:52;;;;;;;;;;;;;;;;;;5087944;28;20285;-82
2023/02/06 14:18:17;;;;;;;;;;;;;;;;;;5065826;28;19912;-82
2023/02/06 14:20:42;;;;;;;;;;;;;;;;;;5072105;28;19916;-87
2023/02/06 14:23:08;;;;;;;;;;;;;;;;;;5074314;28;19961;-88
2023/02/06 14:25:33;;;;;;;;;;;;;;;;;;5091585;28;19912;-91
2023/02/06 14:28:07;;;;;;;;;;;;;;;;;;5086809;28;19939;-92
2023/02/06 14:30:32;;;;;;;;;;;;;;;;;;5071840;28;19927;-85
2023/02/06 14:32:57;;;;;;;;;;;;;;;;;;5067215;28;19908;-90
2023/02/06 14:35:25;;;;;;;;;;;;;;;;;;5063034;28;19980;-90
2023/02/06 14:37:50;;;;;;;;;;;;;;;;;;5074654;28;19916;-87
2023/02/06 14:40:16;;;;;;;;;;;;;;;;;;5073196;28;19912;-87
2023/02/06 14:42:43;;;;;;;;;;;;;;;;;;5065406;28;19939;-89
2023/02/06 14:45:08;;;;;;;;;;;;;;;;;;5084880;28;19947;-88
2023/02/06 14:47:38;;;;;;;;;;;;;;;;;;5053875;28;19916;-89
2023/02/06 14:50:04;;;;;;;;;;;;;;;;;;5065156;28;20399;-88
2023/02/06 14:52:29;;;;;;;;;;;;;;;;;;5074589;28;19936;-86
2023/02/06 14:54:57;;;;;;;;;;;;;;;;;;5067439;28;20010;-88
2023/02/06 14:57:22;;;;;;;;;;;;;;;;;;5062254;28;19924;-88
2023/02/06 14:59:47;;;;;;;;;;;;;;;;;;5057911;28;19978;-87
2023/02/06 15:02:13;;;;;;;;;;;;;;;;;;5065977;28;20343;-87
2023/02/06 15:04:40;;;;;;;;;;;;;;;;;;5066607;28;19912;-87
2023/02/06 15:07:09;;;;;;;;;;;;;;;;;;5070416;28;19912;-87
2023/02/06 15:09:34;;;;;;;;;;;;;;;;;;5069332;28;20369;-87
2023/02/06 15:11:59;;;;;;;;;;;;;;;;;;5070224;28;20293;-89
2023/02/06 15:14:27;;;;;;;;;;;;;;;;;;5057098;28;19916;-88
2023/02/06 15:16:55;;;;;;;;;;;;;;;;;;5064675;28;20010;-89
2023/02/06 15:19:20;;;;;;;;;;;;;;;;;;5064867;28;19912;-88
2023/02/06 15:21:46;;;;;;;;;;;;;;;;;;5067099;28;20158;-88
2023/02/06 15:24:11;;;;;;;;;;;;;;;;;;5068727;28;19912;-85
2023/02/06 15:26:36;;;;;;;;;;;;;;;;;;5072976;28;19916;-87
2023/02/06 15:29:01;;;;;;;;;;;;;;;;;;5061503;28;19955;-89
2023/02/06 15:31:26;;;;;;;;;;;;;;;;;;5068266;28;19923;-88
2023/02/06 15:33:51;;;;;;;;;;;;;;;;;;5062845;28;19912;-86
2023/02/06 15:36:17;;;;;;;;;;;;;;;;;;5069913;28;19924;-87
2023/02/06 15:38:42;;;;;;;;;;;;;;;;;;5071549;28;19973;-88
2023/02/06 15:41:07;;;;;;;;;;;;;;;;;;5060210;28;20418;-88
2023/02/06 15:43:32;;;;;;;;;;;;;;;;;;5061455;28;19919;-87
2023/02/06 15:45:57;;;;;;;;;;;;;;;;;;5091085;28;20001;-87
2023/02/06 15:48:22;;;;;;;;;;;;;;;;;;5072012;28;19920;-86
2023/02/06 15:50:48;;;;;;;;;;;;;;;;;;5066550;28;20333;-86
2023/02/06 15:53:13;;;;;;;;;;;;;;;;;;5071264;28;20354;-86
2023/02/06 15:55:39;;;;;;;;;;;;;;;;;;5060407;28;19938;-86
2023/02/06 15:58:04;;;;;;;;;;;;;;;;;;5065392;28;19964;-86
2023/02/06 16:00:29;;;;;;;;;;;;;;;;;;5072183;28;19959;-84
2023/02/06 16:02:55;;;;;;;;;;;;;;;;;;5087805;28;19958;-86
2023/02/06 16:05:20;;;;;;;;;;;;;;;;;;5090410;28;19948;-84
2023/02/06 16:07:45;;;;;;;;;;;;;;;;;;5065588;28;19912;-88
2023/02/06 16:10:10;;;;;;;;;;;;;;;;;;5062635;28;19932;-87
2023/02/06 16:12:35;;;;;;;;;;;;;;;;;;5068192;28;19965;-86
2023/02/06 16:15:00;;;;;;;;;;;;;;;;;;5067454;28;20378;-87
2023/02/06 16:17:28;;;;;;;;;;;;;;;;;;5064150;28;19920;-87
2023/02/06 16:20:01;;;;;;;;;;;;;;;;;;5069819;28;19958;-88
2023/02/06 16:22:26;;;;;;;;;;;;;;;;;;5073085;28;20003;-87
2023/02/06 16:24:51;;;;;;;;;;;;;;;;;;5073490;28;20010;-86
2023/02/06 16:27:16;;;;;;;;;;;;;;;;;;5065237;28;20424;-87
2023/02/06 16:29:42;;;;;;;;;;;;;;;;;;5066282;28;19915;-88
2023/02/06 16:32:07;;;;;;;;;;;;;;;;;;5068796;28;19912;-87
2023/02/06 16:34:32;;;;;;;;;;;;;;;;;;5065976;28;19919;-87
2023/02/06 16:37:10;;;;;;;;;;;;;;;;;;5072464;28;20419;-87
2023/02/06 16:39:41;;;;;;;;;;;;;;;;;;5072247;28;19912;-85
2023/02/06 16:42:06;;;;;;;;;;;;;;;;;;5062150;28;19916;-85
2023/02/06 16:44:31;;;;;;;;;;;;;;;;;;5063306;28;20286;-86
2023/02/06 16:46:56;;;;;;;;;;;;;;;;;;5068597;28;19926;-87
2023/02/06 16:49:22;;;;;;;;;;;;;;;;;;5073331;28;20282;-87
2023/02/06 16:51:47;;;;;;;;;;;;;;;;;;5070619;28;20555;-86
2023/02/06 16:54:15;;;;;;;;;;;;;;;;;;5070736;28;20289;-87
2023/02/06 16:56:40;;;;;;;;;;;;;;;;;;5064687;28;19916;-88
2023/02/06 16:59:06;;;;;;;;;;;;;;;;;;5059491;28;20278;-86
2023/02/06 17:01:31;;;;;;;;;;;;;;;;;;5067940;28;19919;-90
2023/02/06 17:03:56;;;;;;;;;;;;;;;;;;5061378;28;20277;-88
2023/02/06 17:06:21;;;;;;;;;;;;;;;;;;5069279;28;19928;-88
2023/02/06 17:08:47;;;;;;;;;;;;;;;;;;5069080;28;20394;-88
2023/02/06 17:11:12;;;;;;;;;;;;;;;;;;5070292;28;20342;-89
2023/02/06 17:13:37;;;;;;;;;;;;;;;;;;5074530;28;20298;-89
2023/02/06 17:16:06;;;;;;;;;;;;;;;;;;5085093;28;19935;-88
2023/02/06 17:18:34;;;;;;;;;;;;;;;;;;5074933;28;19908;-88
2023/02/06 17:20:59;;;;;;;;;;;;;;;;;;5082737;28;20015;-88
2023/02/06 17:23:25;;;;;;;;;;;;;;;;;;5073366;28;19919;-88
2023/02/06 17:25:50;;;;;;;;;;;;;;;;;;5068308;28;19916;-88
2023/02/06 17:28:16;;;;;;;;;;;;;;;;;;5084500;28;19912;-89
2023/02/06 17:30:41;;;;;;;;;;;;;;;;;;5070313;28;20019;-89
2023/02/06 17:33:06;;;;;;;;;;;;;;;;;;5072014;28;20461;-87
2023/02/06 17:35:31;;;;;;;;;;;;;;;;;;5085973;28;19927;-87
2023/02/06 17:37:56;;;;;;;;;;;;;;;;;;5074356;28;19916;-87
2023/02/06 17:40:21;;;;;;;;;;;;;;;;;;5066541;28;19916;-89
2023/02/06 17:42:47;;;;;;;;;;;;;;;;;;5067539;28;19912;-82
2023/02/06 17:45:12;;;;;;;;;;;;;;;;;;5065382;28;19918;-82
2023/02/06 17:47:37;;;;;;;;;;;;;;;;;;5084758;28;19966;-84
2023/02/06 17:50:03;;;;;;;;;;;;;;;;;;5064904;28;19920;-84
2023/02/06 17:52:28;;;;;;;;;;;;;;;;;;5065138;28;20321;-86
2023/02/06 17:54:53;;;;;;;;;;;;;;;;;;5066873;28;19912;-86
2023/02/06 17:57:18;;;;;;;;;;;;;;;;;;5067424;28;20006;-88
2023/02/06 17:59:43;;;;;;;;;;;;;;;;;;5067103;28;19916;-90
2023/02/06 18:02:11;;;;;;;;;;;;;;;;;;5064869;28;19912;-91
2023/02/06 18:04:36;;;;;;;;;;;;;;;;;;5064381;28;19958;-88
2023/02/06 18:07:01;;;;;;;;;;;;;;;;;;5083438;28;20000;-85
2023/02/06 18:09:26;;;;;;;;;;;;;;;;;;5066618;28;20262;-85
2023/02/06 18:11:51;;;;;;;;;;;;;;;;;;5064868;28;20002;-84
2023/02/06 18:14:17;;;;;;;;;;;;;;;;;;5089205;28;19919;-84
2023/02/06 18:16:42;;;;;;;;;;;;;;;;;;5091904;28;19923;-83
2023/02/06 18:19:07;;;;;;;;;;;;;;;;;;5077166;28;19986;-83
2023/02/06 18:21:32;;;;;;;;;;;;;;;;;;5083132;28;20110;-81
2023/02/06 18:23:57;;;;;;;;;;;;;;;;;;5066899;28;19920;-82
2023/02/06 18:26:22;;;;;;;;;;;;;;;;;;5074747;28;19920;-84
2023/02/06 18:28:48;;;;;;;;;;;;;;;;;;5067591;28;19912;-88
2023/02/06 18:31:13;;;;;;;;;;;;;;;;;;5059443;28;20011;-85
2023/02/06 18:33:38;;;;;;;;;;;;;;;;;;5057949;28;19915;-84
2023/02/06 18:36:05;;;;;;;;;;;;;;;;;;5061033;28;19936;-82
2023/02/06 18:38:31;;;;;;;;;;;;;;;;;;5068996;28;20218;-83
2023/02/06 18:40:56;;;;;;;;;;;;;;;;;;5059685;28;19948;-83
2023/02/06 18:43:21;;;;;;;;;;;;;;;;;;5070386;28;19912;-83
2023/02/06 18:45:46;;;;;;;;;;;;;;;;;;5088543;28;19912;-83
2023/02/06 18:48:11;;;;;;;;;;;;;;;;;;5062951;28;20363;-83
2023/02/06 18:50:36;;;;;;;;;;;;;;;;;;5063238;28;19943;-83
2023/02/06 18:53:02;;;;;;;;;;;;;;;;;;5064373;28;20421;-83
2023/02/06 18:55:27;;;;;;;;;;;;;;;;;;5080934;28;19927;-83
2023/02/06 18:57:52;;;;;;;;;;;;;;;;;;5066859;28;20329;-83
2023/02/06 19:00:17;;;;;;;;;;;;;;;;;;5065025;28;19912;-83
2023/02/06 19:02:42;;;;;;;;;;;;;;;;;;5081999;28;19919;-83
2023/02/06 19:05:07;;;;;;;;;;;;;;;;;;5080733;28;19944;-84
2023/02/06 19:07:33;;;;;;;;;;;;;;;;;;5064789;28;19935;-84
2023/02/06 19:09:58;;;;;;;;;;;;;;;;;;5081800;28;20342;-87
2023/02/06 19:12:23;;;;;;;;;;;;;;;;;;5061616;28;19920;-82
2023/02/06 19:14:48;;;;;;;;;;;;;;;;;;5061095;28;19912;-81
2023/02/06 19:17:13;;;;;;;;;;;;;;;;;;5061143;28;19916;-82
2023/02/06 19:19:38;;;;;;;;;;;;;;;;;;5067554;28;19912;-82
2023/02/06 19:22:03;;;;;;;;;;;;;;;;;;5082559;28;20393;-82
2023/02/06 19:24:30;;;;;;;;;;;;;;;;;;5066440;28;19912;-83
2023/02/06 19:26:57;;;;;;;;;;;;;;;;;;5073566;28;20278;-82
2023/02/06 19:29:22;;;;;;;;;;;;;;;;;;5085914;28;19912;-82
2023/02/06 19:31:47;;;;;;;;;;;;;;;;;;5086586;28;20378;-82
2023/02/06 19:34:12;;;;;;;;;;;;;;;;;;5087027;28;19908;-83
2023/02/06 19:36:38;;;;;;;;;;;;;;;;;;5069885;28;19966;-83
2023/02/06 19:39:03;;;;;;;;;;;;;;;;;;5072216;28;19908;-83
2023/02/06 19:41:37;;;;;;;;;;;;;;;;;;5063242;28;20003;-83
2023/02/06 19:44:02;;;;;;;;;;;;;;;;;;5061425;28;20398;-84
2023/02/06 19:46:28;;;;;;;;;;;;;;;;;;5066230;28;19917;-84
2023/02/06 19:48:53;;;;;;;;;;;;;;;;;;5068645;28;19913;-83
2023/02/06 19:51:18;;;;;;;;;;;;;;;;;;5057007;28;20375;-85
2023/02/06 19:53:46;;;;;;;;;;;;;;;;;;5083253;28;20361;-84
2023/02/06 19:56:11;;;;;;;;;;;;;;;;;;5070085;28;20374;-82
2023/02/06 19:58:36;;;;;;;;;;;;;;;;;;5091617;28;19919;-81
2023/02/06 20:01:01;;;;;;;;;;;;;;;;;;5086858;28;19965;-83
2023/02/06 20:03:27;;;;;;;;;;;;;;;;;;5064712;28;19919;-83
2023/02/06 20:05:52;;;;;;;;;;;;;;;;;;5057119;28;20451;-83
2023/02/06 20:08:17;;;;;;;;;;;;;;;;;;5062218;28;19958;-83
2023/02/06 20:10:42;;;;;;;;;;;;;;;;;;5079587;28;19923;-84
2023/02/06 20:13:07;;;;;;;;;;;;;;;;;;5066352;28;19912;-82
2023/02/06 20:15:32;;;;;;;;;;;;;;;;;;5084702;28;20405;-83
2023/02/06 20:17:57;;;;;;;;;;;;;;;;;;5088165;28;19956;-87
2023/02/06 20:20:23;;;;;;;;;;;;;;;;;;5063737;28;20001;-82
2023/02/06 20:22:48;;;;;;;;;;;;;;;;;;5069740;28;19922;-82
2023/02/06 20:25:13;;;;;;;;;;;;;;;;;;5065138;28;19926;-82
2023/02/06 20:27:38;;;;;;;;;;;;;;;;;;5061225;28;20003;-82
2023/02/06 20:30:06;;;;;;;;;;;;;;;;;;5061570;28;20099;-81
2023/02/06 20:32:32;;;;;;;;;;;;;;;;;;5080564;28;20378;-82
2023/02/06 20:34:58;;;;;;;;;;;;;;;;;;5062892;28;20389;-81
2023/02/06 20:37:23;;;;;;;;;;;;;;;;;;5065788;28;19919;-81
2023/02/06 20:39:48;;;;;;;;;;;;;;;;;;5084699;28;19916;-82
2023/02/06 20:42:14;;;;;;;;;;;;;;;;;;5086421;28;19916;-82
2023/02/06 20:44:39;;;;;;;;;;;;;;;;;;5085280;28;19919;-82
2023/02/06 20:47:04;;;;;;;;;;;;;;;;;;5068230;28;20107;-82
2023/02/06 20:49:29;;;;;;;;;;;;;;;;;;5068963;28;20079;-82
2023/02/06 20:51:55;;;;;;;;;;;;;;;;;;5086573;28;20437;-81
2023/02/06 20:54:20;;;;;;;;;;;;;;;;;;5065620;28;20408;-81
2023/02/06 20:56:45;;;;;;;;;;;;;;;;;;5087082;28;20358;-82
2023/02/06 20:59:10;;;;;;;;;;;;;;;;;;5067337;28;19920;-81
2023/02/06 21:01:35;;;;;;;;;;;;;;;;;;5070017;28;19917;-82
2023/02/06 21:04:01;;;;;;;;;;;;;;;;;;5086372;28;20332;-83
2023/02/06 21:06:27;;;;;;;;;;;;;;;;;;5089074;28;20370;-82
2023/02/06 21:08:58;;;;;;;;;;;;;;;;;;5064752;28;19919;-82
2023/02/06 21:11:28;;;;;;;;;;;;;;;;;;5080380;28;20003;-81
2023/02/06 21:13:53;;;;;;;;;;;;;;;;;;5086709;28;19918;-82
2023/02/06 21:16:18;;;;;;;;;;;;;;;;;;5084929;28;19920;-82
2023/02/06 21:18:43;;;;;;;;;;;;;;;;;;5082730;28;19947;-82
2023/02/06 21:21:08;;;;;;;;;;;;;;;;;;5066172;28;20006;-83
2023/02/06 21:23:33;;;;;;;;;;;;;;;;;;5071427;28;20026;-83
2023/02/06 21:25:59;;;;;;;;;;;;;;;;;;5068037;28;20362;-82
2023/02/06 21:28:24;;;;;;;;;;;;;;;;;;5068707;28;20415;-82
2023/02/06 21:30:49;;;;;;;;;;;;;;;;;;5067823;28;19912;-83
2023/02/06 21:33:15;;;;;;;;;;;;;;;;;;5065026;28;19912;-82
2023/02/06 21:35:40;;;;;;;;;;;;;;;;;;5088005;28;19966;-82
2023/02/06 21:38:05;;;;;;;;;;;;;;;;;;5065007;28;19916;-83
2023/02/06 21:40:30;;;;;;;;;;;;;;;;;;5083165;28;20003;-82
2023/02/06 21:42:55;;;;;;;;;;;;;;;;;;5082567;28;20125;-83
2023/02/06 21:45:20;;;;;;;;;;;;;;;;;;5066626;28;19965;-82
2023/02/06 21:47:46;;;;;;;;;;;;;;;;;;5065281;28;20385;-82
2023/02/06 21:50:11;;;;;;;;;;;;;;;;;;5067270;28;19912;-82
2023/02/06 21:52:36;;;;;;;;;;;;;;;;;;5071786;28;19948;-85
2023/02/06 21:55:01;;;;;;;;;;;;;;;;;;5067165;28;19924;-82
2023/02/06 21:57:26;;;;;;;;;;;;;;;;;;5062693;28;20290;-83
2023/02/06 21:59:51;;;;;;;;;;;;;;;;;;5081636;28;19950;-82
2023/02/06 22:02:16;;;;;;;;;;;;;;;;;;5062710;28;20454;-83
2023/02/06 22:04:42;;;;;;;;;;;;;;;;;;5068717;28;19916;-82
2023/02/06 22:07:08;;;;;;;;;;;;;;;;;;5059207;28;19935;-82
2023/02/06 22:09:33;;;;;;;;;;;;;;;;;;5070177;28;19912;-82
2023/02/06 22:11:58;;;;;;;;;;;;;;;;;;5085665;28;19915;-82
2023/02/06 22:14:24;;;;;;;;;;;;;;;;;;5065150;28;20011;-81
2023/02/06 22:16:49;;;;;;;;;;;;;;;;;;5087944;28;19920;-83
2023/02/06 22:19:14;;;;;;;;;;;;;;;;;;5072199;28;20363;-83
2023/02/06 22:21:39;;;;;;;;;;;;;;;;;;5069586;28;19960;-83
2023/02/06 22:24:05;;;;;;;;;;;;;;;;;;5075607;28;20376;-84
2023/02/06 22:26:30;;;;;;;;;;;;;;;;;;5070743;28;19955;-83
2023/02/06 22:28:55;;;;;;;;;;;;;;;;;;5088927;28;19928;-83
2023/02/06 22:31:20;;;;;;;;;;;;;;;;;;5068154;28;19912;-83
2023/02/06 22:33:45;;;;;;;;;;;;;;;;;;5065380;28;20420;-82
2023/02/06 22:36:11;;;;;;;;;;;;;;;;;;5066737;28;20362;-83
2023/02/06 22:38:36;;;;;;;;;;;;;;;;;;5068683;28;19916;-82
2023/02/06 22:41:01;;;;;;;;;;;;;;;;;;5061682;28;19917;-83
2023/02/06 22:43:26;;;;;;;;;;;;;;;;;;5075982;28;19974;-83
2023/02/06 22:45:51;;;;;;;;;;;;;;;;;;5090663;28;19912;-83
2023/02/06 22:48:16;;;;;;;;;;;;;;;;;;5088685;28;20298;-83
2023/02/06 22:50:41;;;;;;;;;;;;;;;;;;5063084;28;20373;-82
2023/02/06 22:58:35;;;;;;;;;;;;;;;;;;5084764;28;19977;-82
2023/02/06 23:01:00;;;;;;;;;;;;;;;;;;5073187;28;19951;-84
2023/02/06 23:03:25;;;;;;;;;;;;;;;;;;5065450;28;19912;-82
2023/02/06 23:05:50;;;;;;;;;;;;;;;;;;5091054;28;19942;-83
2023/02/06 23:08:15;;;;;;;;;;;;;;;;;;5073677;28;20267;-83
2023/02/06 23:10:40;;;;;;;;;;;;;;;;;;5087970;28;19912;-82
2023/02/06 23:13:05;;;;;;;;;;;;;;;;;;5072846;28;20125;-81
2023/02/06 23:15:30;;;;;;;;;;;;;;;;;;5086542;28;19928;-82
2023/02/06 23:17:56;;;;;;;;;;;;;;;;;;5074259;28;19969;-82
2023/02/06 23:20:21;;;;;;;;;;;;;;;;;;5062009;28;20007;-82
2023/02/06 23:22:46;;;;;;;;;;;;;;;;;;5069726;28;19913;-82
2023/02/06 23:25:11;;;;;;;;;;;;;;;;;;5068313;28;19946;-82
2023/02/06 23:27:36;;;;;;;;;;;;;;;;;;5065697;28;19980;-82
2023/02/06 23:30:01;;;;;;;;;;;;;;;;;;5069782;28;21417;-82
2023/02/06 23:32:26;;;;;;;;;;;;;;;;;;5088292;28;19937;-83
2023/02/06 23:34:52;;;;;;;;;;;;;;;;;;5083750;28;19916;-83
2023/02/06 23:37:17;;;;;;;;;;;;;;;;;;5058270;28;20286;-83
2023/02/06 23:39:42;;;;;;;;;;;;;;;;;;5071126;28;19920;-83
2023/02/06 23:42:07;;;;;;;;;;;;;;;;;;5062081;28;19912;-82
2023/02/06 23:44:32;;;;;;;;;;;;;;;;;;5063572;28;19912;-82
2023/02/06 23:46:58;;;;;;;;;;;;;;;;;;5062119;28;19920;-82
2023/02/06 23:49:23;;;;;;;;;;;;;;;;;;5073303;28;20344;-82
2023/02/06 23:51:48;;;;;;;;;;;;;;;;;;5068721;28;20294;-82
2023/02/06 23:54:13;;;;;;;;;;;;;;;;;;5091250;28;19951;-83
2023/02/06 23:56:38;;;;;;;;;;;;;;;;;;5068032;28;19924;-83
2023/02/06 23:59:03;;;;;;;;;;;;;;;;;;5061478;28;19919;-83
